sensor_id;sensor_type;location;lat;lon;timestamp;temperature;humidity
7028;DHT22;3555;53.248;10.336;2022-08-25T00:00:20;21.60;1.00
7028;DHT22;3555;53.248;10.336;2022-08-25T00:02:49;21.50;1.00
7028;DHT22;3555;53.248;10.336;2022-08-25T00:05:15;21.50;1.00
7028;DHT22;3555;53.248;10.336;2022-08-25T00:07:42;21.40;1.00
7028;DHT22;3555;53.248;10.336;2022-08-25T00:10:09;21.40;1.00
7028;DHT22;3555;53.248;10.336;2022-08-25T00:12:36;21.40;1.00
7028;DHT22;3555;53.248;10.336;2022-08-25T00:15:04;21.40;1.00
7028;DHT22;3555;53.248;10.336;2022-08-25T00:17:33;21.20;1.00
7028;DHT22;3555;53.248;10.336;2022-08-25T00:20:02;21.10;20.70
7028;DHT22;3555;53.248;10.336;2022-08-25T00:22:29;21.10;46.10
7028;DHT22;3555;53.248;10.336;2022-08-25T00:24:56;21.20;21.10
7028;DHT22;3555;53.248;10.336;2022-08-25T00:27:23;21.30;1.00
7028;DHT22;3555;53.248;10.336;2022-08-25T00:29:50;21.50;1.00
7028;DHT22;3555;53.248;10.336;2022-08-25T00:32:17;21.40;1.00
7028;DHT22;3555;53.248;10.336;2022-08-25T00:34:44;21.40;1.00
7028;DHT22;3555;53.248;10.336;2022-08-25T00:37:12;21.40;1.00
7028;DHT22;3555;53.248;10.336;2022-08-25T00:39:40;21.50;1.00
7028;DHT22;3555;53.248;10.336;2022-08-25T00:42:08;21.50;1.00
7028;DHT22;3555;53.248;10.336;2022-08-25T00:44:35;21.50;1.00
7028;DHT22;3555;53.248;10.336;2022-08-25T00:47:03;21.50;1.00
7028;DHT22;3555;53.248;10.336;2022-08-25T00:49:34;21.40;1.00
7028;DHT22;3555;53.248;10.336;2022-08-25T00:52:04;21.40;1.00
7028;DHT22;3555;53.248;10.336;2022-08-25T00:54:34;21.40;1.00
7028;DHT22;3555;53.248;10.336;2022-08-25T00:57:05;21.30;17.30
7028;DHT22;3555;53.248;10.336;2022-08-25T00:59:32;21.30;36.10
7028;DHT22;3555;53.248;10.336;2022-08-25T01:02:00;21.30;33.50
7028;DHT22;3555;53.248;10.336;2022-08-25T01:04:28;21.20;61.20
7028;DHT22;3555;53.248;10.336;2022-08-25T01:06:57;21.30;40.90
7028;DHT22;3555;53.248;10.336;2022-08-25T01:09:25;21.20;54.90
7028;DHT22;3555;53.248;10.336;2022-08-25T01:11:53;21.20;61.90
7028;DHT22;3555;53.248;10.336;2022-08-25T01:14:23;21.10;93.60
7028;DHT22;3555;53.248;10.336;2022-08-25T01:16:51;21.10;99.90
7028;DHT22;3555;53.248;10.336;2022-08-25T01:19:19;20.90;99.90
7028;DHT22;3555;53.248;10.336;2022-08-25T01:21:49;20.70;99.90
7028;DHT22;3555;53.248;10.336;2022-08-25T01:24:21;20.50;99.90
7028;DHT22;3555;53.248;10.336;2022-08-25T01:26:50;20.50;99.90
7028;DHT22;3555;53.248;10.336;2022-08-25T01:29:17;20.50;99.90
7028;DHT22;3555;53.248;10.336;2022-08-25T01:31:48;20.50;99.90
7028;DHT22;3555;53.248;10.336;2022-08-25T01:34:16;20.50;99.90
7028;DHT22;3555;53.248;10.336;2022-08-25T01:36:44;20.40;99.90
7028;DHT22;3555;53.248;10.336;2022-08-25T01:39:13;20.40;99.90
7028;DHT22;3555;53.248;10.336;2022-08-25T01:41:48;20.40;99.90
7028;DHT22;3555;53.248;10.336;2022-08-25T01:44:19;20.30;99.90
7028;DHT22;3555;53.248;10.336;2022-08-25T01:46:46;20.30;99.90
7028;DHT22;3555;53.248;10.336;2022-08-25T01:49:13;20.30;99.90
7028;DHT22;3555;53.248;10.336;2022-08-25T01:51:43;20.30;99.90
7028;DHT22;3555;53.248;10.336;2022-08-25T01:54:13;20.30;99.90
7028;DHT22;3555;53.248;10.336;2022-08-25T01:56:40;20.30;99.90
7028;DHT22;3555;53.248;10.336;2022-08-25T01:59:08;20.20;99.90
7028;DHT22;3555;53.248;10.336;2022-08-25T02:01:35;20.30;99.90
7028;DHT22;3555;53.248;10.336;2022-08-25T02:04:02;20.20;99.90
7028;DHT22;3555;53.248;10.336;2022-08-25T02:06:32;20.20;99.90
7028;DHT22;3555;53.248;10.336;2022-08-25T02:09:02;20.20;99.90
7028;DHT22;3555;53.248;10.336;2022-08-25T02:11:32;20.10;99.90
7028;DHT22;3555;53.248;10.336;2022-08-25T02:13:59;20.10;99.90
7028;DHT22;3555;53.248;10.336;2022-08-25T02:16:28;20.10;99.90
7028;DHT22;3555;53.248;10.336;2022-08-25T02:18:57;20.10;99.90
7028;DHT22;3555;53.248;10.336;2022-08-25T02:21:24;20.10;99.90
7028;DHT22;3555;53.248;10.336;2022-08-25T02:23:51;20.20;99.90
7028;DHT22;3555;53.248;10.336;2022-08-25T02:26:18;20.20;99.90
7028;DHT22;3555;53.248;10.336;2022-08-25T02:28:48;20.30;99.90
7028;DHT22;3555;53.248;10.336;2022-08-25T02:31:16;20.30;99.90
7028;DHT22;3555;53.248;10.336;2022-08-25T02:33:44;20.50;99.90
7028;DHT22;3555;53.248;10.336;2022-08-25T02:36:11;20.60;99.90
7028;DHT22;3555;53.248;10.336;2022-08-25T02:38:39;20.60;99.90
7028;DHT22;3555;53.248;10.336;2022-08-25T02:41:10;20.80;99.90
7028;DHT22;3555;53.248;10.336;2022-08-25T02:43:38;20.70;99.90
7028;DHT22;3555;53.248;10.336;2022-08-25T02:46:07;20.80;99.90
7028;DHT22;3555;53.248;10.336;2022-08-25T02:48:35;20.90;99.90
7028;DHT22;3555;53.248;10.336;2022-08-25T02:51:02;20.80;99.90
7028;DHT22;3555;53.248;10.336;2022-08-25T02:53:30;20.80;99.90
7028;DHT22;3555;53.248;10.336;2022-08-25T02:55:58;20.90;99.90
7028;DHT22;3555;53.248;10.336;2022-08-25T02:58:25;20.90;99.90
7028;DHT22;3555;53.248;10.336;2022-08-25T03:00:52;20.70;99.90
7028;DHT22;3555;53.248;10.336;2022-08-25T03:03:22;20.70;99.90
7028;DHT22;3555;53.248;10.336;2022-08-25T03:05:49;20.70;99.90
7028;DHT22;3555;53.248;10.336;2022-08-25T03:08:16;20.70;99.90
7028;DHT22;3555;53.248;10.336;2022-08-25T03:10:43;20.70;99.90
7028;DHT22;3555;53.248;10.336;2022-08-25T03:13:10;20.70;99.90
7028;DHT22;3555;53.248;10.336;2022-08-25T03:15:37;20.80;99.90
7028;DHT22;3555;53.248;10.336;2022-08-25T03:18:06;20.70;99.90
7028;DHT22;3555;53.248;10.336;2022-08-25T03:20:35;20.60;99.90
7028;DHT22;3555;53.248;10.336;2022-08-25T03:23:03;20.60;99.90
7028;DHT22;3555;53.248;10.336;2022-08-25T03:25:30;20.50;99.90
7028;DHT22;3555;53.248;10.336;2022-08-25T03:28:14;20.50;99.90
7028;DHT22;3555;53.248;10.336;2022-08-25T03:30:41;20.50;99.90
7028;DHT22;3555;53.248;10.336;2022-08-25T03:33:09;20.50;99.90
7028;DHT22;3555;53.248;10.336;2022-08-25T03:35:38;20.40;99.90
7028;DHT22;3555;53.248;10.336;2022-08-25T03:38:05;20.50;99.90
7028;DHT22;3555;53.248;10.336;2022-08-25T03:40:32;20.50;99.90
7028;DHT22;3555;53.248;10.336;2022-08-25T03:42:59;20.40;99.90
7028;DHT22;3555;53.248;10.336;2022-08-25T03:45:26;20.40;99.90
7028;DHT22;3555;53.248;10.336;2022-08-25T03:47:53;20.30;99.90
7028;DHT22;3555;53.248;10.336;2022-08-25T03:50:21;20.20;99.90
7028;DHT22;3555;53.248;10.336;2022-08-25T03:52:54;20.00;99.90
7028;DHT22;3555;53.248;10.336;2022-08-25T03:55:23;19.80;99.90
7028;DHT22;3555;53.248;10.336;2022-08-25T03:57:51;19.70;99.90
7028;DHT22;3555;53.248;10.336;2022-08-25T04:00:19;19.70;99.90
7028;DHT22;3555;53.248;10.336;2022-08-25T04:02:47;19.60;99.90
7028;DHT22;3555;53.248;10.336;2022-08-25T04:05:14;19.70;99.90
7028;DHT22;3555;53.248;10.336;2022-08-25T04:07:41;19.80;99.90
7028;DHT22;3555;53.248;10.336;2022-08-25T04:10:10;19.90;99.90
7028;DHT22;3555;53.248;10.336;2022-08-25T04:12:37;20.00;99.90
7028;DHT22;3555;53.248;10.336;2022-08-25T04:15:05;20.00;99.90
7028;DHT22;3555;53.248;10.336;2022-08-25T04:17:35;20.00;99.90
7028;DHT22;3555;53.248;10.336;2022-08-25T04:20:03;20.00;99.90
7028;DHT22;3555;53.248;10.336;2022-08-25T04:22:30;20.00;99.90
7028;DHT22;3555;53.248;10.336;2022-08-25T04:24:57;20.00;99.90
7028;DHT22;3555;53.248;10.336;2022-08-25T04:27:25;20.00;99.90
7028;DHT22;3555;53.248;10.336;2022-08-25T04:29:52;20.00;99.90
7028;DHT22;3555;53.248;10.336;2022-08-25T04:32:19;19.80;99.90
7028;DHT22;3555;53.248;10.336;2022-08-25T04:34:47;19.60;99.90
7028;DHT22;3555;53.248;10.336;2022-08-25T04:37:14;19.60;99.90
7028;DHT22;3555;53.248;10.336;2022-08-25T04:39:41;19.30;99.90
7028;DHT22;3555;53.248;10.336;2022-08-25T04:42:08;19.20;99.90
7028;DHT22;3555;53.248;10.336;2022-08-25T04:44:36;19.10;99.90
7028;DHT22;3555;53.248;10.336;2022-08-25T04:47:03;19.10;99.90
7028;DHT22;3555;53.248;10.336;2022-08-25T04:49:30;19.00;99.90
7028;DHT22;3555;53.248;10.336;2022-08-25T04:51:58;19.20;99.90
7028;DHT22;3555;53.248;10.336;2022-08-25T04:54:25;19.20;99.90
7028;DHT22;3555;53.248;10.336;2022-08-25T04:56:52;19.30;99.90
7028;DHT22;3555;53.248;10.336;2022-08-25T04:59:19;19.30;99.90
7028;DHT22;3555;53.248;10.336;2022-08-25T05:01:47;19.30;99.90
7028;DHT22;3555;53.248;10.336;2022-08-25T05:04:15;19.30;99.90
7028;DHT22;3555;53.248;10.336;2022-08-25T05:06:43;19.40;99.90
7028;DHT22;3555;53.248;10.336;2022-08-25T05:09:11;19.50;99.90
7028;DHT22;3555;53.248;10.336;2022-08-25T05:11:38;19.50;99.90
7028;DHT22;3555;53.248;10.336;2022-08-25T05:14:04;19.50;99.90
7028;DHT22;3555;53.248;10.336;2022-08-25T05:16:36;19.50;99.90
7028;DHT22;3555;53.248;10.336;2022-08-25T05:19:05;19.30;99.90
7028;DHT22;3555;53.248;10.336;2022-08-25T05:21:32;19.10;99.90
7028;DHT22;3555;53.248;10.336;2022-08-25T05:24:00;19.00;99.90
7028;DHT22;3555;53.248;10.336;2022-08-25T05:26:29;18.80;99.90
7028;DHT22;3555;53.248;10.336;2022-08-25T05:28:58;18.60;99.90
7028;DHT22;3555;53.248;10.336;2022-08-25T05:31:26;19.10;99.90
7028;DHT22;3555;53.248;10.336;2022-08-25T05:33:54;18.70;99.90
7028;DHT22;3555;53.248;10.336;2022-08-25T05:36:23;18.70;99.90
7028;DHT22;3555;53.248;10.336;2022-08-25T05:38:51;19.10;99.90
7028;DHT22;3555;53.248;10.336;2022-08-25T05:41:20;18.60;99.90
7028;DHT22;3555;53.248;10.336;2022-08-25T05:43:48;18.60;99.90
7028;DHT22;3555;53.248;10.336;2022-08-25T05:46:16;18.50;99.90
7028;DHT22;3555;53.248;10.336;2022-08-25T05:48:44;18.50;99.90
7028;DHT22;3555;53.248;10.336;2022-08-25T05:51:11;18.20;99.90
7028;DHT22;3555;53.248;10.336;2022-08-25T05:53:42;18.30;99.90
7028;DHT22;3555;53.248;10.336;2022-08-25T05:56:10;18.20;99.90
7028;DHT22;3555;53.248;10.336;2022-08-25T05:58:39;18.30;99.90
7028;DHT22;3555;53.248;10.336;2022-08-25T06:01:06;18.30;99.90
7028;DHT22;3555;53.248;10.336;2022-08-25T06:03:47;18.30;99.90
7028;DHT22;3555;53.248;10.336;2022-08-25T06:06:15;18.30;99.90
7028;DHT22;3555;53.248;10.336;2022-08-25T06:08:44;18.30;99.90
7028;DHT22;3555;53.248;10.336;2022-08-25T06:11:11;18.30;99.90
7028;DHT22;3555;53.248;10.336;2022-08-25T06:13:39;18.40;99.90
7028;DHT22;3555;53.248;10.336;2022-08-25T06:16:06;18.50;99.90
7028;DHT22;3555;53.248;10.336;2022-08-25T06:18:33;18.40;99.90
7028;DHT22;3555;53.248;10.336;2022-08-25T06:21:06;18.50;99.90
7028;DHT22;3555;53.248;10.336;2022-08-25T06:23:33;18.60;99.90
7028;DHT22;3555;53.248;10.336;2022-08-25T06:26:01;18.50;99.90
7028;DHT22;3555;53.248;10.336;2022-08-25T06:28:28;18.50;99.90
7028;DHT22;3555;53.248;10.336;2022-08-25T06:30:57;18.50;99.90
7028;DHT22;3555;53.248;10.336;2022-08-25T06:33:24;18.50;99.90
7028;DHT22;3555;53.248;10.336;2022-08-25T06:35:53;18.70;99.90
7028;DHT22;3555;53.248;10.336;2022-08-25T06:38:20;18.70;99.90
7028;DHT22;3555;53.248;10.336;2022-08-25T06:40:47;18.70;99.90
7028;DHT22;3555;53.248;10.336;2022-08-25T06:43:17;18.60;99.90
7028;DHT22;3555;53.248;10.336;2022-08-25T06:45:44;18.60;99.90
7028;DHT22;3555;53.248;10.336;2022-08-25T06:48:13;18.60;99.90
7028;DHT22;3555;53.248;10.336;2022-08-25T06:50:40;18.60;99.90
7028;DHT22;3555;53.248;10.336;2022-08-25T06:53:07;18.50;99.90
7028;DHT22;3555;53.248;10.336;2022-08-25T06:55:34;18.60;99.90
7028;DHT22;3555;53.248;10.336;2022-08-25T06:58:01;18.60;99.90
7028;DHT22;3555;53.248;10.336;2022-08-25T07:00:29;18.50;99.90
7028;DHT22;3555;53.248;10.336;2022-08-25T07:02:57;18.60;99.90
7028;DHT22;3555;53.248;10.336;2022-08-25T07:05:26;18.60;99.90
7028;DHT22;3555;53.248;10.336;2022-08-25T07:07:52;18.50;99.90
7028;DHT22;3555;53.248;10.336;2022-08-25T07:10:19;18.70;99.90
7028;DHT22;3555;53.248;10.336;2022-08-25T07:12:46;18.80;99.90
7028;DHT22;3555;53.248;10.336;2022-08-25T07:15:13;18.90;99.90
7028;DHT22;3555;53.248;10.336;2022-08-25T07:17:41;18.90;99.90
7028;DHT22;3555;53.248;10.336;2022-08-25T07:20:08;19.00;99.90
7028;DHT22;3555;53.248;10.336;2022-08-25T07:22:35;19.00;99.90
7028;DHT22;3555;53.248;10.336;2022-08-25T07:25:03;19.00;99.90
7028;DHT22;3555;53.248;10.336;2022-08-25T07:27:30;18.90;99.90
7028;DHT22;3555;53.248;10.336;2022-08-25T07:29:57;18.90;99.90
7028;DHT22;3555;53.248;10.336;2022-08-25T07:32:24;18.90;99.90
7028;DHT22;3555;53.248;10.336;2022-08-25T07:34:52;19.10;99.90
7028;DHT22;3555;53.248;10.336;2022-08-25T07:37:37;19.10;99.90
7028;DHT22;3555;53.248;10.336;2022-08-25T07:40:06;19.10;99.90
7028;DHT22;3555;53.248;10.336;2022-08-25T07:42:33;19.10;99.90
7028;DHT22;3555;53.248;10.336;2022-08-25T07:45:00;19.10;99.90
7028;DHT22;3555;53.248;10.336;2022-08-25T07:47:28;19.20;99.90
7028;DHT22;3555;53.248;10.336;2022-08-25T07:49:57;19.20;99.90
7028;DHT22;3555;53.248;10.336;2022-08-25T07:52:24;19.20;99.90
7028;DHT22;3555;53.248;10.336;2022-08-25T07:54:51;19.40;99.90
7028;DHT22;3555;53.248;10.336;2022-08-25T07:57:20;19.40;99.90
7028;DHT22;3555;53.248;10.336;2022-08-25T07:59:49;19.50;99.90
7028;DHT22;3555;53.248;10.336;2022-08-25T08:02:16;19.60;99.90
7028;DHT22;3555;53.248;10.336;2022-08-25T08:04:43;19.60;99.90
7028;DHT22;3555;53.248;10.336;2022-08-25T08:07:12;19.70;99.90
7028;DHT22;3555;53.248;10.336;2022-08-25T08:09:40;19.90;99.90
7028;DHT22;3555;53.248;10.336;2022-08-25T08:12:07;19.80;99.90
7028;DHT22;3555;53.248;10.336;2022-08-25T08:14:34;19.80;99.90
7028;DHT22;3555;53.248;10.336;2022-08-25T08:17:04;19.80;99.90
7028;DHT22;3555;53.248;10.336;2022-08-25T08:19:31;19.90;99.90
7028;DHT22;3555;53.248;10.336;2022-08-25T08:21:59;19.80;99.90
7028;DHT22;3555;53.248;10.336;2022-08-25T08:24:29;19.90;99.90
7028;DHT22;3555;53.248;10.336;2022-08-25T08:26:57;20.00;99.90
7028;DHT22;3555;53.248;10.336;2022-08-25T08:29:23;20.00;99.90
7028;DHT22;3555;53.248;10.336;2022-08-25T08:31:51;20.10;99.90
7028;DHT22;3555;53.248;10.336;2022-08-25T08:34:18;20.00;99.90
7028;DHT22;3555;53.248;10.336;2022-08-25T08:36:44;20.00;99.90
7028;DHT22;3555;53.248;10.336;2022-08-25T08:39:11;20.10;99.90
7028;DHT22;3555;53.248;10.336;2022-08-25T08:41:47;20.10;99.90
7028;DHT22;3555;53.248;10.336;2022-08-25T08:44:46;20.20;99.90
7028;DHT22;3555;53.248;10.336;2022-08-25T08:47:22;20.30;99.90
7028;DHT22;3555;53.248;10.336;2022-08-25T08:49:57;20.20;99.90
7028;DHT22;3555;53.248;10.336;2022-08-25T08:52:35;20.30;99.90
7028;DHT22;3555;53.248;10.336;2022-08-25T08:55:08;20.30;99.90
7028;DHT22;3555;53.248;10.336;2022-08-25T08:57:43;20.40;99.90
7028;DHT22;3555;53.248;10.336;2022-08-25T09:00:12;20.20;99.90
7028;DHT22;3555;53.248;10.336;2022-08-25T09:02:45;20.20;99.90
7028;DHT22;3555;53.248;10.336;2022-08-25T09:05:17;20.30;99.90
7028;DHT22;3555;53.248;10.336;2022-08-25T09:07:47;20.30;99.90
7028;DHT22;3555;53.248;10.336;2022-08-25T09:10:16;20.30;99.90
7028;DHT22;3555;53.248;10.336;2022-08-25T09:12:48;20.50;99.90
7028;DHT22;3555;53.248;10.336;2022-08-25T09:15:27;20.60;99.90
7028;DHT22;3555;53.248;10.336;2022-08-25T09:18:24;20.70;99.90
7028;DHT22;3555;53.248;10.336;2022-08-25T09:21:04;20.80;99.90
7028;DHT22;3555;53.248;10.336;2022-08-25T09:23:43;20.90;99.90
7028;DHT22;3555;53.248;10.336;2022-08-25T09:26:24;20.90;99.90
7028;DHT22;3555;53.248;10.336;2022-08-25T09:29:01;20.90;99.90
7028;DHT22;3555;53.248;10.336;2022-08-25T09:31:31;21.00;99.90
7028;DHT22;3555;53.248;10.336;2022-08-25T09:34:01;21.10;99.90
7028;DHT22;3555;53.248;10.336;2022-08-25T09:36:29;21.20;99.90
7028;DHT22;3555;53.248;10.336;2022-08-25T09:38:56;21.30;99.90
7028;DHT22;3555;53.248;10.336;2022-08-25T09:41:39;21.30;99.90
7028;DHT22;3555;53.248;10.336;2022-08-25T09:44:16;21.40;99.90
7028;DHT22;3555;53.248;10.336;2022-08-25T09:46:55;21.50;99.90
7028;DHT22;3555;53.248;10.336;2022-08-25T09:49:31;21.70;99.90
7028;DHT22;3555;53.248;10.336;2022-08-25T09:55:34;22.40;99.90
7028;DHT22;3555;53.248;10.336;2022-08-25T09:58:14;22.80;99.90
7028;DHT22;3555;53.248;10.336;2022-08-25T10:00:44;23.20;99.90
7028;DHT22;3555;53.248;10.336;2022-08-25T10:03:25;23.50;99.90
7028;DHT22;3555;53.248;10.336;2022-08-25T10:06:04;23.60;84.30
7028;DHT22;3555;53.248;10.336;2022-08-25T10:08:35;23.80;1.00
7028;DHT22;3555;53.248;10.336;2022-08-25T10:11:04;24.00;1.00
7028;DHT22;3555;53.248;10.336;2022-08-25T10:13:39;24.10;1.00
7028;DHT22;3555;53.248;10.336;2022-08-25T10:16:11;24.10;1.00
7028;DHT22;3555;53.248;10.336;2022-08-25T10:18:38;24.00;1.00
7028;DHT22;3555;53.248;10.336;2022-08-25T10:21:08;24.10;1.00
7028;DHT22;3555;53.248;10.336;2022-08-25T10:23:40;24.40;1.00
7028;DHT22;3555;53.248;10.336;2022-08-25T10:26:14;24.70;1.00
7028;DHT22;3555;53.248;10.336;2022-08-25T10:28:51;24.90;99.90
7028;DHT22;3555;53.248;10.336;2022-08-25T10:31:23;25.10;1.00
7028;DHT22;3555;53.248;10.336;2022-08-25T10:34:01;25.20;99.90
7028;DHT22;3555;53.248;10.336;2022-08-25T10:36:40;25.20;1.00
7028;DHT22;3555;53.248;10.336;2022-08-25T10:39:18;25.40;99.90
7028;DHT22;3555;53.248;10.336;2022-08-25T10:41:54;25.60;72.70
7028;DHT22;3555;53.248;10.336;2022-08-25T10:44:33;25.90;1.00
7028;DHT22;3555;53.248;10.336;2022-08-25T10:47:43;26.20;99.90
7028;DHT22;3555;53.248;10.336;2022-08-25T10:50:21;26.40;99.90
7028;DHT22;3555;53.248;10.336;2022-08-25T10:52:59;26.50;92.00
7028;DHT22;3555;53.248;10.336;2022-08-25T10:55:35;26.70;1.00
7028;DHT22;3555;53.248;10.336;2022-08-25T10:58:11;26.80;99.90
7028;DHT22;3555;53.248;10.336;2022-08-25T11:00:46;26.70;99.90
7028;DHT22;3555;53.248;10.336;2022-08-25T11:03:29;26.70;99.90
7028;DHT22;3555;53.248;10.336;2022-08-25T11:06:02;26.70;99.90
7028;DHT22;3555;53.248;10.336;2022-08-25T11:08:34;27.00;1.00
7028;DHT22;3555;53.248;10.336;2022-08-25T11:11:06;27.00;1.00
7028;DHT22;3555;53.248;10.336;2022-08-25T11:13:40;27.00;1.00
7028;DHT22;3555;53.248;10.336;2022-08-25T11:16:11;27.10;1.00
7028;DHT22;3555;53.248;10.336;2022-08-25T11:18:45;27.00;1.00
7028;DHT22;3555;53.248;10.336;2022-08-25T11:21:16;26.70;1.00
7028;DHT22;3555;53.248;10.336;2022-08-25T11:23:51;26.80;1.00
7028;DHT22;3555;53.248;10.336;2022-08-25T11:26:25;26.90;99.90
7028;DHT22;3555;53.248;10.336;2022-08-25T11:29:01;27.00;99.90
7028;DHT22;3555;53.248;10.336;2022-08-25T11:31:29;27.10;99.90
7028;DHT22;3555;53.248;10.336;2022-08-25T11:33:57;27.10;99.90
7028;DHT22;3555;53.248;10.336;2022-08-25T11:36:28;27.00;99.90
7028;DHT22;3555;53.248;10.336;2022-08-25T11:39:06;27.20;99.90
7028;DHT22;3555;53.248;10.336;2022-08-25T11:41:45;27.20;99.90
7028;DHT22;3555;53.248;10.336;2022-08-25T11:44:37;27.30;99.90
7028;DHT22;3555;53.248;10.336;2022-08-25T11:47:39;27.50;99.90
7028;DHT22;3555;53.248;10.336;2022-08-25T11:50:26;27.60;39.90
7028;DHT22;3555;53.248;10.336;2022-08-25T11:52:55;27.60;1.00
7028;DHT22;3555;53.248;10.336;2022-08-25T11:55:31;27.60;1.00
7028;DHT22;3555;53.248;10.336;2022-08-25T11:58:32;27.70;1.00
7028;DHT22;3555;53.248;10.336;2022-08-25T12:01:01;27.70;1.00
7028;DHT22;3555;53.248;10.336;2022-08-25T12:03:51;27.60;1.00
7028;DHT22;3555;53.248;10.336;2022-08-25T12:06:24;27.50;1.00
7028;DHT22;3555;53.248;10.336;2022-08-25T12:09:18;27.50;1.00
7028;DHT22;3555;53.248;10.336;2022-08-25T12:11:48;27.40;1.00
7028;DHT22;3555;53.248;10.336;2022-08-25T12:17:05;27.80;1.00
7028;DHT22;3555;53.248;10.336;2022-08-25T12:19:49;27.80;1.00
7028;DHT22;3555;53.248;10.336;2022-08-25T12:22:43;27.90;1.00
7028;DHT22;3555;53.248;10.336;2022-08-25T12:25:38;28.10;99.90
7028;DHT22;3555;53.248;10.336;2022-08-25T12:31:04;28.00;99.90
7028;DHT22;3555;53.248;10.336;2022-08-25T12:33:42;28.00;99.90
7028;DHT22;3555;53.248;10.336;2022-08-25T12:36:25;28.30;99.90
7028;DHT22;3555;53.248;10.336;2022-08-25T12:39:17;28.10;99.90
7028;DHT22;3555;53.248;10.336;2022-08-25T12:41:57;28.30;99.90
7028;DHT22;3555;53.248;10.336;2022-08-25T12:44:35;28.30;99.90
7028;DHT22;3555;53.248;10.336;2022-08-25T12:47:23;28.30;99.90
7028;DHT22;3555;53.248;10.336;2022-08-25T12:49:52;28.10;99.90
7028;DHT22;3555;53.248;10.336;2022-08-25T12:52:21;28.30;99.90
7028;DHT22;3555;53.248;10.336;2022-08-25T12:54:53;28.10;99.90
7028;DHT22;3555;53.248;10.336;2022-08-25T12:57:39;28.00;99.90
7028;DHT22;3555;53.248;10.336;2022-08-25T13:00:15;27.80;99.90
7028;DHT22;3555;53.248;10.336;2022-08-25T13:03:12;27.70;99.90
7028;DHT22;3555;53.248;10.336;2022-08-25T13:06:00;27.60;99.90
7028;DHT22;3555;53.248;10.336;2022-08-25T13:11:32;27.70;99.90
7028;DHT22;3555;53.248;10.336;2022-08-25T13:14:08;27.70;99.90
7028;DHT22;3555;53.248;10.336;2022-08-25T13:16:39;27.60;99.90
7028;DHT22;3555;53.248;10.336;2022-08-25T13:19:06;27.70;99.90
7028;DHT22;3555;53.248;10.336;2022-08-25T13:21:43;28.00;99.90
7028;DHT22;3555;53.248;10.336;2022-08-25T13:24:15;28.00;99.90
7028;DHT22;3555;53.248;10.336;2022-08-25T13:26:47;27.90;99.90
7028;DHT22;3555;53.248;10.336;2022-08-25T13:29:20;27.90;99.90
7028;DHT22;3555;53.248;10.336;2022-08-25T13:31:53;28.00;99.90
7028;DHT22;3555;53.248;10.336;2022-08-25T13:34:23;27.90;99.90
7028;DHT22;3555;53.248;10.336;2022-08-25T13:36:50;28.00;99.90
7028;DHT22;3555;53.248;10.336;2022-08-25T13:39:36;28.00;99.90
7028;DHT22;3555;53.248;10.336;2022-08-25T13:42:13;28.10;99.90
7028;DHT22;3555;53.248;10.336;2022-08-25T13:44:40;28.00;99.90
7028;DHT22;3555;53.248;10.336;2022-08-25T13:47:10;28.10;99.90
7028;DHT22;3555;53.248;10.336;2022-08-25T13:49:40;28.10;99.90
7028;DHT22;3555;53.248;10.336;2022-08-25T13:52:14;28.20;74.90
7028;DHT22;3555;53.248;10.336;2022-08-25T13:54:44;28.20;99.90
7028;DHT22;3555;53.248;10.336;2022-08-25T13:57:16;28.40;99.90
7028;DHT22;3555;53.248;10.336;2022-08-25T13:59:49;28.50;99.90
7028;DHT22;3555;53.248;10.336;2022-08-25T14:02:41;28.60;74.10
7028;DHT22;3555;53.248;10.336;2022-08-25T14:05:11;28.50;99.90
7028;DHT22;3555;53.248;10.336;2022-08-25T14:07:38;28.60;99.90
7028;DHT22;3555;53.248;10.336;2022-08-25T14:10:08;28.50;98.80
7028;DHT22;3555;53.248;10.336;2022-08-25T14:12:39;28.50;99.90
7028;DHT22;3555;53.248;10.336;2022-08-25T14:15:24;28.40;99.90
7028;DHT22;3555;53.248;10.336;2022-08-25T14:18:02;28.50;99.90
7028;DHT22;3555;53.248;10.336;2022-08-25T14:20:31;28.60;99.90
7028;DHT22;3555;53.248;10.336;2022-08-25T14:23:01;28.50;99.90
7028;DHT22;3555;53.248;10.336;2022-08-25T14:25:29;28.60;71.50
7028;DHT22;3555;53.248;10.336;2022-08-25T14:27:58;28.60;99.90
7028;DHT22;3555;53.248;10.336;2022-08-25T14:30:26;28.60;99.90
7028;DHT22;3555;53.248;10.336;2022-08-25T14:32:54;28.60;96.20
7028;DHT22;3555;53.248;10.336;2022-08-25T14:35:22;28.50;1.00
7028;DHT22;3555;53.248;10.336;2022-08-25T14:37:49;28.50;1.00
7028;DHT22;3555;53.248;10.336;2022-08-25T14:40:16;28.40;30.30
7028;DHT22;3555;53.248;10.336;2022-08-25T14:42:44;28.40;35.70
7028;DHT22;3555;53.248;10.336;2022-08-25T14:45:12;28.50;99.90
7028;DHT22;3555;53.248;10.336;2022-08-25T14:47:39;28.50;99.90
7028;DHT22;3555;53.248;10.336;2022-08-25T14:50:07;28.40;99.90
7028;DHT22;3555;53.248;10.336;2022-08-25T14:52:36;28.30;99.90
7028;DHT22;3555;53.248;10.336;2022-08-25T14:55:03;28.20;99.90
7028;DHT22;3555;53.248;10.336;2022-08-25T14:57:30;28.20;99.90
7028;DHT22;3555;53.248;10.336;2022-08-25T14:59:57;28.30;99.90
7028;DHT22;3555;53.248;10.336;2022-08-25T15:02:25;28.10;99.90
7028;DHT22;3555;53.248;10.336;2022-08-25T15:04:55;28.20;99.90
7028;DHT22;3555;53.248;10.336;2022-08-25T15:07:24;28.00;99.90
7028;DHT22;3555;53.248;10.336;2022-08-25T15:10:10;27.90;99.90
7028;DHT22;3555;53.248;10.336;2022-08-25T15:12:37;27.70;99.90
7028;DHT22;3555;53.248;10.336;2022-08-25T15:15:04;27.80;99.90
7028;DHT22;3555;53.248;10.336;2022-08-25T15:17:31;27.90;99.90
7028;DHT22;3555;53.248;10.336;2022-08-25T15:19:58;27.90;99.90
7028;DHT22;3555;53.248;10.336;2022-08-25T15:22:25;28.10;99.90
7028;DHT22;3555;53.248;10.336;2022-08-25T15:24:52;28.00;99.90
7028;DHT22;3555;53.248;10.336;2022-08-25T15:27:20;27.90;99.90
7028;DHT22;3555;53.248;10.336;2022-08-25T15:29:48;27.70;99.90
7028;DHT22;3555;53.248;10.336;2022-08-25T15:32:15;27.80;99.90
7028;DHT22;3555;53.248;10.336;2022-08-25T15:34:43;27.90;99.90
7028;DHT22;3555;53.248;10.336;2022-08-25T15:37:12;28.10;99.90
7028;DHT22;3555;53.248;10.336;2022-08-25T15:39:40;28.10;99.90
7028;DHT22;3555;53.248;10.336;2022-08-25T15:42:08;28.10;99.90
7028;DHT22;3555;53.248;10.336;2022-08-25T15:44:38;28.10;99.90
7028;DHT22;3555;53.248;10.336;2022-08-25T15:47:05;28.20;99.90
7028;DHT22;3555;53.248;10.336;2022-08-25T15:49:32;28.20;78.00
7028;DHT22;3555;53.248;10.336;2022-08-25T15:51:59;28.20;62.30
7028;DHT22;3555;53.248;10.336;2022-08-25T15:54:27;28.30;96.70
7028;DHT22;3555;53.248;10.336;2022-08-25T15:56:55;28.10;93.30
7028;DHT22;3555;53.248;10.336;2022-08-25T15:59:22;28.10;99.90
7028;DHT22;3555;53.248;10.336;2022-08-25T16:01:51;28.10;99.90
7028;DHT22;3555;53.248;10.336;2022-08-25T16:04:19;28.10;93.80
7028;DHT22;3555;53.248;10.336;2022-08-25T16:06:46;28.00;99.90
7028;DHT22;3555;53.248;10.336;2022-08-25T16:09:13;27.90;99.90
7028;DHT22;3555;53.248;10.336;2022-08-25T16:11:40;27.90;99.90
7028;DHT22;3555;53.248;10.336;2022-08-25T16:14:08;28.00;99.90
7028;DHT22;3555;53.248;10.336;2022-08-25T16:16:34;28.10;99.90
7028;DHT22;3555;53.248;10.336;2022-08-25T16:19:03;28.00;99.90
7028;DHT22;3555;53.248;10.336;2022-08-25T16:21:32;27.90;99.90